createdAt,value
2018-02-21T00:00:58.524Z,1017.82
2018-02-21T00:02:08.270Z,1017.82
2018-02-21T00:03:17.247Z,1017.82
2018-02-21T00:04:26.729Z,1017.8
2018-02-21T00:05:36.245Z,1017.81
2018-02-21T00:06:45.040Z,1017.8
2018-02-21T00:07:54.267Z,1017.83
2018-02-21T00:09:03.203Z,1017.81
2018-02-21T00:10:12.670Z,1017.79
2018-02-21T00:11:21.356Z,1017.81
2018-02-21T00:12:30.843Z,1017.78
2018-02-21T00:13:40.108Z,1017.81
2018-02-21T00:14:49.674Z,1017.83
2018-02-21T00:15:58.941Z,1017.81
2018-02-21T00:17:08.723Z,1017.86
2018-02-21T00:18:17.441Z,1017.9
2018-02-21T00:19:26.404Z,1017.9
2018-02-21T00:20:35.357Z,1017.91
2018-02-21T00:21:44.574Z,1017.86
2018-02-21T00:22:53.827Z,1017.88
2018-02-21T00:24:03.343Z,1017.9
2018-02-21T00:25:12.600Z,1017.83
2018-02-21T00:26:21.546Z,1017.83
2018-02-21T00:27:30.759Z,1017.85
2018-02-21T00:28:39.441Z,1017.84
2018-02-21T00:29:48.578Z,1017.84
2018-02-21T00:30:57.537Z,1017.83
2018-02-21T00:32:06.507Z,1017.8
2018-02-21T00:33:15.755Z,1017.89
2018-02-21T00:34:25.215Z,1017.88
2018-02-21T00:35:34.714Z,1017.88
2018-02-21T00:36:43.491Z,1017.85
2018-02-21T00:37:52.198Z,1017.93
2018-02-21T00:39:00.906Z,1017.93
2018-02-21T00:40:10.516Z,1017.96
2018-02-21T00:41:19.271Z,1018
2018-02-21T00:42:28.228Z,1018.02
2018-02-21T00:43:36.949Z,1018
2018-02-21T00:44:45.920Z,1018.01
2018-02-21T00:45:54.887Z,1018.05
2018-02-21T00:47:03.895Z,1018.03
2018-02-21T00:48:12.865Z,1018.07
2018-02-21T00:49:22.086Z,1018.07
2018-02-21T00:50:31.341Z,1018.09
2018-02-21T00:51:40.290Z,1018.07
2018-02-21T00:52:49.782Z,1018.1
2018-02-21T00:53:59.001Z,1018.1
2018-02-21T00:55:08.251Z,1018.15
2018-02-21T00:56:17.461Z,1018.14
2018-02-21T00:57:26.139Z,1018.12
2018-02-21T00:58:35.609Z,1018.17
2018-02-21T00:59:44.376Z,1018.18
2018-02-21T01:00:53.599Z,1018.2
2018-02-21T01:02:02.548Z,1018.16
2018-02-21T01:03:11.764Z,1018.18
2018-02-21T01:04:21.031Z,1018.15
2018-02-21T01:05:30.253Z,1018.18
2018-02-21T01:06:39.971Z,1018.19
2018-02-21T01:07:49.451Z,1018.17
2018-02-21T01:08:58.730Z,1018.15
2018-02-21T01:10:08.273Z,1018.15
2018-02-21T01:11:17.473Z,1018.12
2018-02-21T01:12:26.703Z,1018.16
2018-02-21T01:13:35.941Z,1018.14
2018-02-21T01:14:45.477Z,1018.13
2018-02-21T01:15:54.723Z,1018.11
2018-02-21T01:17:04.283Z,1018.11
2018-02-21T01:18:13.802Z,1018.15
2018-02-21T01:19:23.042Z,1018.13
2018-02-21T01:20:31.718Z,1018.14
2018-02-21T01:21:40.711Z,1018.15
2018-02-21T01:22:49.680Z,1018.14
2018-02-21T01:23:58.951Z,1018.15
2018-02-21T01:25:07.905Z,1018.13
2018-02-21T01:26:17.139Z,1018.12
2018-02-21T01:27:25.924Z,1018.14
2018-02-21T01:28:35.684Z,1018.16
2018-02-21T01:29:45.491Z,1018.14
2018-02-21T01:30:54.476Z,1018.19
2018-02-21T01:32:03.440Z,1018.2
2018-02-21T01:33:13.292Z,1018.19
2018-02-21T01:34:22.512Z,1018.21
2018-02-21T01:35:31.981Z,1018.24
2018-02-21T01:36:41.221Z,1018.23
2018-02-21T01:37:50.165Z,1018.28
2018-02-21T01:38:59.377Z,1018.3
2018-02-21T01:40:08.362Z,1018.24
2018-02-21T01:41:18.168Z,1018.23
2018-02-21T01:42:27.376Z,1018.27
2018-02-21T01:43:36.330Z,1018.25
2018-02-21T01:44:45.037Z,1018.22
2018-02-21T01:45:54.275Z,1018.22
2018-02-21T01:47:03.260Z,1018.22
2018-02-21T01:48:12.464Z,1018.19
2018-02-21T01:49:21.444Z,1018.16
2018-02-21T01:50:30.679Z,1018.21
2018-02-21T01:51:39.631Z,1018.22
2018-02-21T01:52:49.140Z,1018.23
2018-02-21T01:53:58.658Z,1018.25
2018-02-21T01:55:07.600Z,1018.22
2018-02-21T01:56:16.568Z,1018.21
2018-02-21T01:57:25.531Z,1018.17
2018-02-21T01:58:35.005Z,1018.13
2018-02-21T01:59:44.344Z,1018.09
2018-02-21T02:00:54.095Z,1018.06
2018-02-21T02:02:03.077Z,1018.01
2018-02-21T02:03:12.334Z,1017.98
2018-02-21T02:04:21.070Z,1018.01
2018-02-21T02:05:30.021Z,1018.04
2018-02-21T02:06:38.989Z,1018.07
2018-02-21T02:07:48.480Z,1018.1
2018-02-21T02:08:57.156Z,1018.14
2018-02-21T02:10:06.178Z,1018.2
2018-02-21T02:11:15.126Z,1018.2
2018-02-21T02:12:24.151Z,1018.2
2018-02-21T02:13:32.921Z,1018.18
2018-02-21T02:14:42.415Z,1018.14
2018-02-21T02:15:51.663Z,1018.15
2018-02-21T02:17:00.919Z,1018.12
2018-02-21T02:18:10.675Z,1018.07
2018-02-21T02:19:19.691Z,1018.03
2018-02-21T02:20:28.671Z,1018.07
2018-02-21T02:21:38.427Z,1018.05
2018-02-21T02:22:47.452Z,1018.02
2018-02-21T02:23:56.436Z,1018.08
2018-02-21T02:25:05.386Z,1018.11
2018-02-21T02:26:14.618Z,1018.14
2018-02-21T02:27:23.594Z,1018.19
2018-02-21T02:28:32.804Z,1018.18
2018-02-21T02:29:42.060Z,1018.23
2018-02-21T02:30:51.324Z,1018.21
2018-02-21T02:32:00.546Z,1018.19
2018-02-21T02:33:09.572Z,1018.17
2018-02-21T02:34:18.594Z,1018.14
2018-02-21T02:35:27.549Z,1018.11
2018-02-21T02:36:36.813Z,1018.04
2018-02-21T02:37:46.042Z,1018.03
2018-02-21T02:38:55.262Z,1018
2018-02-21T02:40:05.065Z,1017.96
2018-02-21T02:41:14.622Z,1017.98
2018-02-21T02:42:23.354Z,1018.06
2018-02-21T02:43:32.596Z,1018.06
2018-02-21T02:44:41.631Z,1018.05
2018-02-21T02:45:50.875Z,1018.04
2018-02-21T02:46:59.593Z,1018.05
2018-02-21T02:48:08.851Z,1018.06
2018-02-21T02:49:17.523Z,1018.08
2018-02-21T02:50:26.763Z,1018.07
2018-02-21T02:51:36.270Z,1018.06
2018-02-21T02:52:45.778Z,1018.02
2018-02-21T02:53:54.776Z,1018.09
2018-02-21T02:55:04.532Z,1018.01
2018-02-21T02:56:14.063Z,1018.1
2018-02-21T02:57:23.593Z,1018.09
2018-02-21T02:58:32.549Z,1018.09
2018-02-21T02:59:41.494Z,1018.14
2018-02-21T03:00:50.735Z,1018.18
2018-02-21T03:01:59.990Z,1018.2
2018-02-21T03:03:09.502Z,1018.2
2018-02-21T03:04:18.833Z,1018.23
2018-02-21T03:05:27.832Z,1018.2
2018-02-21T03:06:37.425Z,1018.24
2018-02-21T03:07:46.400Z,1018.25
2018-02-21T03:08:55.927Z,1018.28
2018-02-21T03:10:05.192Z,1018.29
2018-02-21T03:11:14.420Z,1018.29
2018-02-21T03:12:23.699Z,1018.31
2018-02-21T03:13:32.739Z,1018.33
2018-02-21T03:14:41.772Z,1018.33
2018-02-21T03:15:50.482Z,1018.32
2018-02-21T03:16:59.424Z,1018.34
2018-02-21T03:18:08.935Z,1018.36
2018-02-21T03:19:18.191Z,1018.37
2018-02-21T03:20:26.909Z,1018.36
2018-02-21T03:21:35.634Z,1018.4
2018-02-21T03:22:44.329Z,1018.4
2018-02-21T03:23:53.363Z,1018.38
2018-02-21T03:25:02.365Z,1018.39
2018-02-21T03:26:11.575Z,1018.44
2018-02-21T03:27:20.317Z,1018.48
2018-02-21T03:28:29.602Z,1018.49
2018-02-21T03:29:38.301Z,1018.49
2018-02-21T03:30:47.257Z,1018.5
2018-02-21T03:31:56.491Z,1018.52
2018-02-21T03:33:05.462Z,1018.57
2018-02-21T03:34:14.694Z,1018.56
2018-02-21T03:35:23.383Z,1018.58
2018-02-21T03:36:32.351Z,1018.55
2018-02-21T03:37:41.347Z,1018.59
2018-02-21T03:38:50.362Z,1018.57
2018-02-21T03:39:59.448Z,1018.58
2018-02-21T03:41:08.013Z,1018.6
2018-02-21T03:42:17.244Z,1018.62
2018-02-21T03:43:26.493Z,1018.65
2018-02-21T03:44:35.722Z,1018.69
2018-02-21T03:45:45.466Z,1018.75
2018-02-21T03:46:54.430Z,1018.76
2018-02-21T03:48:03.665Z,1018.78
2018-02-21T03:49:12.676Z,1018.74
2018-02-21T03:50:21.421Z,1018.75
2018-02-21T03:51:30.376Z,1018.7
2018-02-21T03:52:39.064Z,1018.7
2018-02-21T03:53:47.834Z,1018.73
2018-02-21T03:54:57.093Z,1018.76
2018-02-21T03:56:06.052Z,1018.81
2018-02-21T03:57:15.021Z,1018.79
2018-02-21T03:58:23.785Z,1018.81
2018-02-21T03:59:32.835Z,1018.79
2018-02-21T04:00:41.812Z,1018.82
2018-02-21T04:01:51.037Z,1018.84
2018-02-21T04:03:00.019Z,1018.85
2018-02-21T04:04:09.248Z,1018.85
2018-02-21T04:05:18.216Z,1018.89
2018-02-21T04:06:27.502Z,1018.91
2018-02-21T04:07:36.473Z,1018.92
2018-02-21T04:08:45.756Z,1019
2018-02-21T04:09:54.457Z,1019.01
2018-02-21T04:11:03.722Z,1019
2018-02-21T04:12:13.245Z,1018.99
2018-02-21T04:13:22.194Z,1018.94
2018-02-21T04:14:31.801Z,1018.94
2018-02-21T04:15:40.615Z,1018.94
2018-02-21T04:16:49.369Z,1018.93
2018-02-21T04:17:58.368Z,1018.91
2018-02-21T04:19:07.590Z,1018.97
2018-02-21T04:20:16.833Z,1018.99
2018-02-21T04:21:25.585Z,1019.02
2018-02-21T04:22:34.281Z,1019.05
2018-02-21T04:23:43.531Z,1019.06
2018-02-21T04:24:52.209Z,1019.06
2018-02-21T04:26:01.482Z,1019.08
2018-02-21T04:27:10.725Z,1019.04
2018-02-21T04:28:19.679Z,1019.04
2018-02-21T04:29:28.362Z,1019.02
2018-02-21T04:30:37.322Z,1019.02
2018-02-21T04:31:46.092Z,1019.04
2018-02-21T04:32:55.049Z,1019.03
2018-02-21T04:34:04.020Z,1019.09
2018-02-21T04:35:12.981Z,1019.07
2018-02-21T04:36:22.206Z,1019.09
2018-02-21T04:37:31.432Z,1019.13
2018-02-21T04:38:41.163Z,1019.09
2018-02-21T04:39:50.645Z,1019.1
2018-02-21T04:40:59.578Z,1019.07
2018-02-21T04:42:08.242Z,1019.07
2018-02-21T04:43:17.192Z,1019.1
2018-02-21T04:44:26.420Z,1019.1
2018-02-21T04:45:35.385Z,1019.1
2018-02-21T04:46:44.844Z,1019.1
2018-02-21T04:47:54.143Z,1019.17
2018-02-21T04:49:03.368Z,1019.17
2018-02-21T04:50:12.840Z,1019.23
2018-02-21T04:51:21.801Z,1019.22
2018-02-21T04:52:30.531Z,1019.23
2018-02-21T04:53:39.248Z,1019.2
2018-02-21T04:54:48.255Z,1019.19
2018-02-21T04:55:57.493Z,1019.2
2018-02-21T04:57:06.551Z,1019.18
2018-02-21T04:58:15.310Z,1019.17
2018-02-21T04:59:24.332Z,1019.18
2018-02-21T05:00:33.343Z,1019.19
2018-02-21T05:01:43.206Z,1019.18
2018-02-21T05:02:52.711Z,1019.2
2018-02-21T05:04:02.277Z,1019.17
2018-02-21T05:05:11.020Z,1019.15
2018-02-21T05:06:19.848Z,1019.16
2018-02-21T05:07:28.535Z,1019.12
2018-02-21T05:08:37.757Z,1019.17
2018-02-21T05:09:46.733Z,1019.17
2018-02-21T05:10:55.776Z,1019.1
2018-02-21T05:12:05.021Z,1019.14
2018-02-21T05:13:14.565Z,1019.16
2018-02-21T05:14:23.812Z,1019.19
2018-02-21T05:15:33.034Z,1019.17
2018-02-21T05:16:41.982Z,1019.16
2018-02-21T05:17:50.665Z,1019.19
2018-02-21T05:18:59.416Z,1019.17
2018-02-21T05:20:08.679Z,1019.11
2018-02-21T05:21:17.903Z,1019.15
2018-02-21T05:22:27.429Z,1019.15
2018-02-21T05:23:36.250Z,1019.15
2018-02-21T05:24:45.290Z,1019.17
2018-02-21T05:25:53.981Z,1019.21
2018-02-21T05:27:03.189Z,1019.16
2018-02-21T05:28:12.668Z,1019.12
2018-02-21T05:29:21.623Z,1019.15
2018-02-21T05:30:30.866Z,1019.1
2018-02-21T05:31:39.548Z,1019.09
2018-02-21T05:32:48.543Z,1019.07
2018-02-21T05:33:57.501Z,1019.07
2018-02-21T05:35:06.747Z,1019.07
2018-02-21T05:36:16.516Z,1019.01
2018-02-21T05:37:25.763Z,1018.99
2018-02-21T05:38:34.723Z,1018.99
2018-02-21T05:39:43.667Z,1018.97
2018-02-21T05:40:53.193Z,1018.97
2018-02-21T05:42:02.208Z,1019.02
2018-02-21T05:43:11.461Z,1019
2018-02-21T05:44:21.514Z,1019.01
2018-02-21T05:45:30.822Z,1019.02
2018-02-21T05:46:39.815Z,1019.03
2018-02-21T05:47:48.765Z,1019.02
2018-02-21T05:48:57.741Z,1019
2018-02-21T05:50:06.439Z,1019
2018-02-21T05:51:15.925Z,1018.98
2018-02-21T05:52:24.885Z,1019
2018-02-21T05:53:33.596Z,1018.98
2018-02-21T05:54:42.303Z,1018.98
2018-02-21T05:55:51.284Z,1018.96
2018-02-21T05:57:00.526Z,1018.96
2018-02-21T05:58:09.522Z,1018.98
2018-02-21T05:59:18.727Z,1018.96
2018-02-21T06:00:27.686Z,1018.98
2018-02-21T06:01:37.166Z,1019.02
2018-02-21T06:02:45.836Z,1019.03
2018-02-21T06:03:55.078Z,1019.05
2018-02-21T06:05:04.042Z,1019.04
2018-02-21T06:06:13.017Z,1019.08
2018-02-21T06:07:21.733Z,1019.03
2018-02-21T06:08:30.992Z,1019.04
2018-02-21T06:09:40.502Z,1019.07
2018-02-21T06:10:49.522Z,1019.08
2018-02-21T06:11:58.249Z,1019.06
2018-02-21T06:13:07.461Z,1019.1
2018-02-21T06:14:16.754Z,1019.16
2018-02-21T06:15:25.767Z,1019.16
2018-02-21T06:16:34.814Z,1019.17
2018-02-21T06:17:43.588Z,1019.24
2018-02-21T06:18:52.568Z,1019.26
2018-02-21T06:20:01.848Z,1019.28
2018-02-21T06:21:11.094Z,1019.26
2018-02-21T06:22:21.180Z,1019.3
2018-02-21T06:23:30.383Z,1019.31
2018-02-21T06:24:39.882Z,1019.26
2018-02-21T06:25:49.372Z,1019.27
2018-02-21T06:26:58.256Z,1019.25
2018-02-21T06:28:07.214Z,1019.21
2018-02-21T06:29:15.914Z,1019.19
2018-02-21T06:30:24.895Z,1019.16
2018-02-21T06:31:34.182Z,1019.19
2018-02-21T06:32:43.171Z,1019.2
2018-02-21T06:33:52.376Z,1019.23
2018-02-21T06:35:02.409Z,1019.21
2018-02-21T06:36:11.354Z,1019.24
2018-02-21T06:37:20.593Z,1019.3
2018-02-21T06:38:29.570Z,1019.28
2018-02-21T06:39:38.879Z,1019.37
2018-02-21T06:40:48.087Z,1019.33
2018-02-21T06:41:56.781Z,1019.36
2018-02-21T06:43:06.059Z,1019.4
2018-02-21T06:44:15.297Z,1019.38
2018-02-21T06:45:24.564Z,1019.38
2018-02-21T06:46:33.294Z,1019.43
2018-02-21T06:47:42.645Z,1019.41
2018-02-21T06:48:52.426Z,1019.45
2018-02-21T06:50:01.988Z,1019.47
2018-02-21T06:51:11.043Z,1019.5
2018-02-21T06:52:20.306Z,1019.52
2018-02-21T06:53:29.813Z,1019.54
2018-02-21T06:54:39.050Z,1019.55
2018-02-21T06:55:48.306Z,1019.58
2018-02-21T06:56:58.101Z,1019.56
2018-02-21T06:58:07.630Z,1019.58
2018-02-21T06:59:16.910Z,1019.57
2018-02-21T07:00:26.164Z,1019.6
2018-02-21T07:01:35.606Z,1019.56
2018-02-21T07:02:45.137Z,1019.57
2018-02-21T07:03:54.148Z,1019.54
2018-02-21T07:05:03.650Z,1019.58
2018-02-21T07:06:13.150Z,1019.56
2018-02-21T07:07:22.683Z,1019.56
2018-02-21T07:08:31.980Z,1019.57
2018-02-21T07:09:40.923Z,1019.57
2018-02-21T07:10:50.144Z,1019.6
2018-02-21T07:11:59.149Z,1019.63
2018-02-21T07:13:08.094Z,1019.67
2018-02-21T07:14:17.328Z,1019.67
2018-02-21T07:15:26.617Z,1019.69
2018-02-21T07:16:35.894Z,1019.67
2018-02-21T07:17:44.584Z,1019.68
2018-02-21T07:18:53.538Z,1019.73
2018-02-21T07:20:03.052Z,1019.76
2018-02-21T07:21:12.057Z,1019.74
2018-02-21T07:22:21.272Z,1019.78
2018-02-21T07:23:30.516Z,1019.81
2018-02-21T07:24:40.003Z,1019.77
2018-02-21T07:25:49.005Z,1019.79
2018-02-21T07:26:58.242Z,1019.76
2018-02-21T07:28:07.198Z,1019.79
2018-02-21T07:29:15.919Z,1019.8
2018-02-21T07:30:24.891Z,1019.86
2018-02-21T07:31:33.929Z,1019.84
2018-02-21T07:32:43.224Z,1019.83
2018-02-21T07:33:52.677Z,1019.86
2018-02-21T07:35:01.942Z,1019.87
2018-02-21T07:36:11.434Z,1019.87
2018-02-21T07:37:20.496Z,1019.89
2018-02-21T07:38:29.738Z,1019.91
2018-02-21T07:39:39.043Z,1019.91
2018-02-21T07:40:48.338Z,1019.94
2018-02-21T07:41:57.874Z,1019.95
2018-02-21T07:43:06.959Z,1019.95
2018-02-21T07:44:15.929Z,1019.99
2018-02-21T07:45:25.481Z,1019.99
2018-02-21T07:46:34.200Z,1020.04
2018-02-21T07:47:43.181Z,1019.98
2018-02-21T07:48:52.941Z,1019.97
2018-02-21T07:50:01.660Z,1019.95
2018-02-21T07:51:10.710Z,1019.89
2018-02-21T07:52:19.662Z,1019.91
2018-02-21T07:53:28.392Z,1019.91
2018-02-21T07:54:37.399Z,1019.91
2018-02-21T07:55:46.355Z,1019.9
2018-02-21T07:56:55.332Z,1019.94
2018-02-21T07:58:04.071Z,1019.98
2018-02-21T07:59:13.048Z,1019.97
2018-02-21T08:00:22.053Z,1019.98
2018-02-21T08:01:31.570Z,1019.97
2018-02-21T08:02:40.527Z,1019.92
2018-02-21T08:03:49.754Z,1019.92
2018-02-21T08:04:58.746Z,1019.94
2018-02-21T08:06:07.680Z,1019.94
2018-02-21T08:07:16.668Z,1019.89
2018-02-21T08:08:25.897Z,1019.93
2018-02-21T08:09:34.691Z,1019.86
2018-02-21T08:10:43.651Z,1019.84
2018-02-21T08:11:52.598Z,1019.86
2018-02-21T08:13:01.550Z,1019.8
2018-02-21T08:14:10.538Z,1019.83
2018-02-21T08:15:19.554Z,1019.74
2018-02-21T08:16:29.374Z,1019.82
2018-02-21T08:17:38.333Z,1019.79
2018-02-21T08:18:47.570Z,1019.83
2018-02-21T08:19:57.091Z,1019.89
2018-02-21T08:21:06.340Z,1019.82
2018-02-21T08:22:15.560Z,1019.93
2018-02-21T08:23:24.797Z,1019.88
2018-02-21T08:24:33.578Z,1019.88
2018-02-21T08:25:42.563Z,1019.88
2018-02-21T08:26:51.566Z,1019.88
2018-02-21T08:28:00.281Z,1019.88
2018-02-21T08:29:10.533Z,1019.83
2018-02-21T08:30:20.007Z,1019.83
2018-02-21T08:31:28.995Z,1019.81
2018-02-21T08:32:38.243Z,1019.87
2018-02-21T08:33:48.491Z,1019.87
2018-02-21T08:34:57.972Z,1019.87
2018-02-21T08:36:06.684Z,1019.87
2018-02-21T08:37:15.563Z,1019.88
2018-02-21T08:38:24.526Z,1019.85
2018-02-21T08:39:33.765Z,1019.89
2018-02-21T08:40:42.520Z,1019.89
2018-02-21T08:41:52.021Z,1019.89
2018-02-21T08:43:01.246Z,1019.92
2018-02-21T08:44:10.738Z,1019.92
2018-02-21T08:45:20.250Z,1019.96
2018-02-21T08:46:29.759Z,1019.94
2018-02-21T08:47:38.724Z,1019.92
2018-02-21T08:48:47.710Z,1019.98
2018-02-21T08:49:56.687Z,1020.04
2018-02-21T08:51:05.651Z,1019.93
2018-02-21T08:52:14.654Z,1019.98
2018-02-21T08:53:24.219Z,1020
2018-02-21T08:54:33.168Z,1019.97
2018-02-21T08:55:42.144Z,1020.02
2018-02-21T08:56:51.366Z,1019.97
2018-02-21T08:58:00.078Z,1020.01
2018-02-21T08:59:09.343Z,1019.99
2018-02-21T09:00:18.035Z,1019.98
2018-02-21T09:01:27.007Z,1019.94
2018-02-21T09:02:36.227Z,1019.91
2018-02-21T09:03:45.239Z,1019.94
2018-02-21T09:04:54.214Z,1019.93
2018-02-21T09:06:02.908Z,1019.98
2018-02-21T09:07:12.405Z,1019.94
2018-02-21T09:08:21.939Z,1019.94
2018-02-21T09:09:31.163Z,1019.99
2018-02-21T09:10:39.893Z,1019.96
2018-02-21T09:11:48.586Z,1019.91
2018-02-21T09:12:57.791Z,1019.91
2018-02-21T09:14:07.298Z,1019.87
2018-02-21T09:15:16.529Z,1019.87
2018-02-21T09:16:26.028Z,1019.84
2018-02-21T09:17:35.364Z,1019.85
2018-02-21T09:18:44.893Z,1019.82
2018-02-21T09:19:54.393Z,1019.8
2018-02-21T09:21:03.075Z,1019.83
2018-02-21T09:22:12.578Z,1019.8
2018-02-21T09:23:22.091Z,1019.82
2018-02-21T09:24:31.414Z,1019.86
2018-02-21T09:25:40.644Z,1019.82
2018-02-21T09:26:50.396Z,1019.79
2018-02-21T09:27:59.342Z,1019.82
2018-02-21T09:29:08.837Z,1019.79
2018-02-21T09:30:17.840Z,1019.8
2018-02-21T09:31:27.104Z,1019.8
2018-02-21T09:32:36.849Z,1019.74
2018-02-21T09:33:46.065Z,1019.75
2018-02-21T09:34:55.300Z,1019.74
2018-02-21T09:36:04.577Z,1019.76
2018-02-21T09:37:14.066Z,1019.72
2018-02-21T09:38:23.005Z,1019.71
2018-02-21T09:39:31.723Z,1019.74
2018-02-21T09:40:40.679Z,1019.79
2018-02-21T09:41:49.625Z,1019.76
2018-02-21T09:42:58.852Z,1019.76
2018-02-21T09:44:07.813Z,1019.76
2018-02-21T09:45:17.083Z,1019.78
2018-02-21T09:46:26.668Z,1019.73
2018-02-21T09:47:35.626Z,1019.75
2018-02-21T09:48:44.859Z,1019.72
2018-02-21T09:49:54.087Z,1019.74
2018-02-21T09:51:03.066Z,1019.75
2018-02-21T09:52:12.609Z,1019.73
2018-02-21T09:53:21.858Z,1019.74
2018-02-21T09:54:30.552Z,1019.69
2018-02-21T09:55:39.541Z,1019.72
2018-02-21T09:56:48.752Z,1019.71
2018-02-21T09:57:58.002Z,1019.71
2018-02-21T09:59:06.973Z,1019.75
2018-02-21T10:00:15.906Z,1019.76
2018-02-21T10:01:25.110Z,1019.74
2018-02-21T10:02:34.349Z,1019.77
2018-02-21T10:03:43.303Z,1019.77
2018-02-21T10:04:52.796Z,1019.78
2018-02-21T10:06:02.004Z,1019.79
2018-02-21T10:07:11.257Z,1019.79
2018-02-21T10:08:19.944Z,1019.77
2018-02-21T10:09:29.466Z,1019.78
2018-02-21T10:10:38.432Z,1019.74
2018-02-21T10:11:47.120Z,1019.76
2018-02-21T10:12:55.821Z,1019.8
2018-02-21T10:14:04.771Z,1019.79
2018-02-21T10:15:14.236Z,1019.8
2018-02-21T10:16:24.000Z,1019.78
2018-02-21T10:17:32.949Z,1019.77
2018-02-21T10:18:41.628Z,1019.81
2018-02-21T10:19:50.579Z,1019.81
2018-02-21T10:20:59.786Z,1019.79
2018-02-21T10:22:08.497Z,1019.75
2018-02-21T10:23:17.712Z,1019.78
2018-02-21T10:24:26.656Z,1019.78
2018-02-21T10:25:35.632Z,1019.8
2018-02-21T10:26:44.404Z,1019.79
2018-02-21T10:27:53.603Z,1019.79
2018-02-21T10:29:02.849Z,1019.81
2018-02-21T10:30:11.542Z,1019.79
2018-02-21T10:31:20.761Z,1019.77
2018-02-21T10:32:29.451Z,1019.75
2018-02-21T10:33:38.471Z,1019.77
2018-02-21T10:34:47.174Z,1019.74
2018-02-21T10:35:56.404Z,1019.71
2018-02-21T10:37:05.605Z,1019.77
2018-02-21T10:38:14.606Z,1019.71
2018-02-21T10:39:23.578Z,1019.66
2018-02-21T10:40:33.058Z,1019.68
2018-02-21T10:41:41.775Z,1019.68
2018-02-21T10:42:50.798Z,1019.72
2018-02-21T10:43:59.759Z,1019.74
2018-02-21T10:45:08.743Z,1019.72
2018-02-21T10:46:17.431Z,1019.71
2018-02-21T10:47:26.400Z,1019.68
2018-02-21T10:48:35.349Z,1019.67
2018-02-21T10:49:44.861Z,1019.68
2018-02-21T10:50:53.841Z,1019.66
2018-02-21T10:52:02.784Z,1019.66
2018-02-21T10:53:12.051Z,1019.68
2018-02-21T10:54:21.036Z,1019.65
2018-02-21T10:55:30.501Z,1019.65
2018-02-21T10:56:39.733Z,1019.65
2018-02-21T10:57:49.481Z,1019.62
2018-02-21T10:58:58.983Z,1019.59
2018-02-21T11:00:08.196Z,1019.61
2018-02-21T11:01:17.165Z,1019.57
2018-02-21T11:02:26.163Z,1019.6
2018-02-21T11:03:35.102Z,1019.61
2018-02-21T11:04:43.820Z,1019.6
2018-02-21T11:05:52.771Z,1019.62
2018-02-21T11:07:01.725Z,1019.59
2018-02-21T11:08:11.022Z,1019.54
2018-02-21T11:09:20.276Z,1019.56
2018-02-21T11:10:29.507Z,1019.52
2018-02-21T11:11:38.747Z,1019.56
2018-02-21T11:12:47.710Z,1019.53
2018-02-21T11:13:56.671Z,1019.52
2018-02-21T11:15:05.601Z,1019.49
2018-02-21T11:16:14.306Z,1019.48
2018-02-21T11:17:23.251Z,1019.51
2018-02-21T11:18:32.213Z,1019.5
2018-02-21T11:19:42.247Z,1019.48
2018-02-21T11:20:51.189Z,1019.5
2018-02-21T11:22:00.136Z,1019.46
2018-02-21T11:23:09.382Z,1019.5
2018-02-21T11:24:19.053Z,1019.48
2018-02-21T11:25:28.653Z,1019.49
2018-02-21T11:26:37.956Z,1019.5
2018-02-21T11:27:46.787Z,1019.46
2018-02-21T11:28:56.826Z,1019.47
2018-02-21T11:30:06.567Z,1019.44
2018-02-21T11:31:15.542Z,1019.43
2018-02-21T11:32:24.807Z,1019.45
2018-02-21T11:33:33.771Z,1019.46
2018-02-21T11:34:42.715Z,1019.48
2018-02-21T11:35:52.168Z,1019.47
2018-02-21T11:37:01.169Z,1019.47
2018-02-21T11:38:09.885Z,1019.43
2018-02-21T11:39:19.118Z,1019.46
2018-02-21T11:40:27.860Z,1019.47
2018-02-21T11:41:36.840Z,1019.46
2018-02-21T11:42:46.089Z,1019.49
2018-02-21T11:43:55.045Z,1019.44
2018-02-21T11:45:04.015Z,1019.46
2018-02-21T11:46:13.601Z,1019.48
2018-02-21T11:47:22.368Z,1019.42
2018-02-21T11:48:31.307Z,1019.45
2018-02-21T11:49:40.270Z,1019.44
2018-02-21T11:50:49.529Z,1019.44
2018-02-21T11:51:59.133Z,1019.39
2018-02-21T11:53:08.118Z,1019.4
2018-02-21T11:54:17.094Z,1019.34
2018-02-21T11:55:26.579Z,1019.36
2018-02-21T11:56:35.792Z,1019.39
2018-02-21T11:57:44.760Z,1019.36
2018-02-21T11:58:53.832Z,1019.34
2018-02-21T12:00:02.858Z,1019.32
2018-02-21T12:01:12.106Z,1019.3
2018-02-21T12:02:21.388Z,1019.25
2018-02-21T12:03:30.613Z,1019.23
2018-02-21T12:04:39.569Z,1019.19
2018-02-21T12:05:48.601Z,1019.17
2018-02-21T12:06:58.075Z,1019.17
2018-02-21T12:08:07.017Z,1019.13
2018-02-21T12:09:16.238Z,1019.17
2018-02-21T12:10:25.475Z,1019.15
2018-02-21T12:11:34.828Z,1019.11
2018-02-21T12:12:44.036Z,1019.1
2018-02-21T12:13:52.985Z,1019.17
2018-02-21T12:15:01.932Z,1019.14
2018-02-21T12:16:10.880Z,1019.14
2018-02-21T12:17:19.816Z,1019.14
2018-02-21T12:18:29.016Z,1019.11
2018-02-21T12:19:37.976Z,1019.08
2018-02-21T12:20:46.969Z,1019.1
2018-02-21T12:21:55.971Z,1019.12
2018-02-21T12:23:04.935Z,1019.09
2018-02-21T12:24:14.161Z,1019.11
2018-02-21T12:25:23.654Z,1019.1
2018-02-21T12:26:32.673Z,1019.1
2018-02-21T12:27:41.673Z,1019.17
2018-02-21T12:28:50.647Z,1019.09
2018-02-21T12:29:59.609Z,1019.08
2018-02-21T12:31:08.861Z,1019.03
2018-02-21T12:32:17.853Z,1019.01
2018-02-21T12:33:26.810Z,1018.98
2018-02-21T12:34:35.772Z,1018.99
2018-02-21T12:35:44.729Z,1018.95
2018-02-21T12:36:53.942Z,1018.91
2018-02-21T12:38:02.938Z,1018.94
2018-02-21T12:39:11.900Z,1018.94
2018-02-21T12:40:20.857Z,1018.98
2018-02-21T12:41:29.616Z,1018.93
2018-02-21T12:42:38.610Z,1018.99
2018-02-21T12:43:47.888Z,1018.98
2018-02-21T12:44:57.141Z,1019
2018-02-21T12:46:06.102Z,1018.98
2018-02-21T12:47:14.774Z,1018.95
2018-02-21T12:48:24.332Z,1018.99
2018-02-21T12:49:33.023Z,1018.95
2018-02-21T12:50:42.046Z,1018.98
2018-02-21T12:51:50.990Z,1018.9
2018-02-21T12:53:00.196Z,1018.9
2018-02-21T12:54:08.890Z,1018.83
2018-02-21T12:55:18.458Z,1018.83
2018-02-21T12:56:27.472Z,1018.79
2018-02-21T12:57:36.169Z,1018.81
2018-02-21T12:58:45.154Z,1018.75
2018-02-21T12:59:54.389Z,1018.81
2018-02-21T13:01:03.366Z,1018.75
2018-02-21T13:02:12.842Z,1018.75
2018-02-21T13:03:21.582Z,1018.69
2018-02-21T13:04:30.546Z,1018.69
2018-02-21T13:05:39.796Z,1018.65
2018-02-21T13:06:49.114Z,1018.65
2018-02-21T13:07:57.808Z,1018.64
2018-02-21T13:09:06.773Z,1018.61
2018-02-21T13:10:15.736Z,1018.63
2018-02-21T13:11:25.004Z,1018.66
2018-02-21T13:12:34.225Z,1018.6
2018-02-21T13:13:43.761Z,1018.54
2018-02-21T13:14:53.000Z,1018.58
2018-02-21T13:16:02.228Z,1018.53
2018-02-21T13:17:11.172Z,1018.57
2018-02-21T13:18:20.436Z,1018.48
2018-02-21T13:19:29.401Z,1018.48
2018-02-21T13:20:38.868Z,1018.49
2018-02-21T13:21:48.071Z,1018.55
2018-02-21T13:22:57.295Z,1018.52
2018-02-21T13:24:06.263Z,1018.45
2018-02-21T13:25:15.241Z,1018.47
2018-02-21T13:26:24.202Z,1018.41
2018-02-21T13:27:32.891Z,1018.41
2018-02-21T13:28:42.112Z,1018.48
2018-02-21T13:29:51.321Z,1018.47
2018-02-21T13:31:00.079Z,1018.5
2018-02-21T13:32:09.033Z,1018.51
2018-02-21T13:33:18.257Z,1018.49
2018-02-21T13:34:27.220Z,1018.53
2018-02-21T13:35:35.930Z,1018.54
2018-02-21T13:36:44.616Z,1018.48
2018-02-21T13:37:53.579Z,1018.5
2018-02-21T13:39:02.796Z,1018.5
2018-02-21T13:40:11.492Z,1018.5
2018-02-21T13:41:20.198Z,1018.47
2018-02-21T13:42:29.445Z,1018.4
2018-02-21T13:43:38.664Z,1018.33
2018-02-21T13:44:47.689Z,1018.35
2018-02-21T13:45:56.948Z,1018.32
2018-02-21T13:47:05.893Z,1018.28
2018-02-21T13:48:15.421Z,1018.32
2018-02-21T13:49:24.657Z,1018.31
2018-02-21T13:50:33.337Z,1018.29
2018-02-21T13:51:42.609Z,1018.3
2018-02-21T13:52:51.903Z,1018.21
2018-02-21T13:54:01.260Z,1018.24
2018-02-21T13:55:10.313Z,1018.21
2018-02-21T13:56:20.359Z,1018.17
2018-02-21T13:57:29.585Z,1018.16
2018-02-21T13:58:39.084Z,1018.17
2018-02-21T13:59:48.071Z,1018.11
2018-02-21T14:00:57.587Z,1018.1